createdAt,value
2017-01-11T04:00:20.387Z,44.71
2017-01-11T04:00:45.948Z,44.62
2017-01-11T04:01:11.507Z,44.62
2017-01-11T04:01:37.081Z,44.62
2017-01-11T04:02:02.706Z,44.71
2017-01-11T04:02:28.368Z,44.62
2017-01-11T04:02:53.987Z,44.52
2017-01-11T04:03:19.560Z,44.71
2017-01-11T04:03:45.141Z,44.62
2017-01-11T04:04:10.712Z,44.52
2017-01-11T04:04:36.352Z,44.62
2017-01-11T04:05:01.914Z,44.62
2017-01-11T04:05:27.498Z,44.52
2017-01-11T04:05:53.111Z,44.32
2017-01-11T04:06:18.783Z,44.23
2017-01-11T04:06:44.957Z,44.04
2017-01-11T04:07:10.517Z,44.04
2017-01-11T04:07:36.329Z,44.71
2017-01-11T04:08:01.912Z,44.42
2017-01-11T04:08:27.473Z,44.52
2017-01-11T04:09:41.489Z,44.42
2017-01-11T04:10:07.059Z,44.23
2017-01-11T04:10:32.649Z,44.13
2017-01-11T04:10:58.248Z,44.23
2017-01-11T04:11:23.824Z,43.94
2017-01-11T04:11:49.392Z,44.42
2017-01-11T04:12:14.954Z,44.71
2017-01-11T04:12:40.628Z,44.71
2017-01-11T04:13:06.189Z,44.32
2017-01-11T04:13:31.772Z,44.52
2017-01-11T04:13:57.363Z,44.62
2017-01-11T04:14:22.939Z,44.32
2017-01-11T04:14:48.507Z,44.13
2017-01-11T04:15:14.200Z,44.52
2017-01-11T04:15:39.803Z,44.52
2017-01-11T04:16:05.364Z,44.52
2017-01-11T04:16:30.944Z,44.62
2017-01-11T04:16:56.591Z,44.52
2017-01-11T04:17:22.149Z,44.71
2017-01-11T04:17:47.725Z,44.62
2017-01-11T04:18:13.290Z,44.04
2017-01-11T04:18:38.867Z,44.04
2017-01-11T04:19:04.474Z,44.32
2017-01-11T04:19:30.013Z,44.13
2017-01-11T04:19:55.582Z,43.85
2017-01-11T04:20:21.189Z,43.85
2017-01-11T04:20:46.811Z,43.85
2017-01-11T04:21:12.364Z,43.75
2017-01-11T04:21:37.917Z,43.75
2017-01-11T04:22:03.576Z,43.85
2017-01-11T04:22:29.150Z,43.85
2017-01-11T04:22:54.716Z,43.55
2017-01-11T04:23:20.292Z,43.85
2017-01-11T04:23:45.857Z,43.65
2017-01-11T04:24:11.452Z,43.85
2017-01-11T04:24:37.014Z,43.85
2017-01-11T04:25:02.558Z,43.55
2017-01-11T04:25:28.139Z,44.04
2017-01-11T04:25:53.694Z,44.13
2017-01-11T04:26:19.264Z,44.04
2017-01-11T04:26:44.812Z,44.13
2017-01-11T04:27:10.390Z,44.13
2017-01-11T04:27:35.961Z,44.04
2017-01-11T04:28:01.509Z,43.94
2017-01-11T04:28:27.066Z,43.94
2017-01-11T04:28:52.615Z,44.04
2017-01-11T04:29:18.189Z,44.04
2017-01-11T04:29:43.765Z,43.96
2017-01-11T04:30:09.322Z,43.87
2017-01-11T04:30:34.901Z,43.75
2017-01-11T04:31:00.453Z,43.75
2017-01-11T04:31:26.042Z,43.65
2017-01-11T04:31:51.748Z,43.94
2017-01-11T04:32:17.305Z,44.04
2017-01-11T04:32:42.873Z,43.94
2017-01-11T04:33:08.578Z,43.75
2017-01-11T04:33:34.164Z,43.94
2017-01-11T04:33:59.740Z,44.04
2017-01-11T04:34:25.344Z,43.94
2017-01-11T04:34:50.913Z,43.87
2017-01-11T04:35:16.484Z,43.94
2017-01-11T04:35:42.053Z,43.85
2017-01-11T04:36:07.724Z,43.85
2017-01-11T04:36:33.294Z,43.85
2017-01-11T04:36:58.845Z,43.94
2017-01-11T04:37:24.502Z,43.85
2017-01-11T04:37:50.051Z,43.85
2017-01-11T04:38:15.612Z,43.94
2017-01-11T04:38:41.180Z,43.67
2017-01-11T04:39:06.905Z,43.55
2017-01-11T04:39:32.477Z,43.85
2017-01-11T04:39:58.041Z,43.85
2017-01-11T04:40:23.733Z,44.04
2017-01-11T04:40:49.284Z,43.58
2017-01-11T04:41:14.844Z,43.96
2017-01-11T04:41:40.534Z,43.75
2017-01-11T04:42:06.109Z,43.87
2017-01-11T04:42:31.677Z,43.87
2017-01-11T04:42:57.311Z,43.96
2017-01-11T04:43:22.909Z,43.87
2017-01-11T04:43:48.572Z,43.96
2017-01-11T04:44:14.124Z,43.67
2017-01-11T04:44:39.760Z,43.87
2017-01-11T04:45:05.324Z,43.75
2017-01-11T04:45:30.870Z,43.96
2017-01-11T04:45:56.537Z,43.77
2017-01-11T04:46:22.096Z,43.77
2017-01-11T04:46:47.673Z,43.77
2017-01-11T04:47:13.260Z,43.94
2017-01-11T04:47:38.842Z,43.87
2017-01-11T04:48:04.402Z,43.58
2017-01-11T04:48:29.953Z,43.67
2017-01-11T04:48:55.518Z,43.75
2017-01-11T04:49:21.073Z,43.85
2017-01-11T04:49:46.645Z,43.67
2017-01-11T04:50:12.225Z,43.48
2017-01-11T04:50:37.917Z,43.48
2017-01-11T04:51:03.497Z,43.75
2017-01-11T04:51:29.065Z,43.87
2017-01-11T04:51:54.621Z,43.77
2017-01-11T04:52:20.206Z,43.77
2017-01-11T04:52:45.772Z,43.46
2017-01-11T04:53:11.338Z,43.67
2017-01-11T04:53:36.941Z,43.67
2017-01-11T04:54:02.497Z,43.48
2017-01-11T04:54:28.155Z,43.48
2017-01-11T04:54:53.777Z,43.77
2017-01-11T04:55:19.348Z,43.48
2017-01-11T04:55:44.899Z,43.77
2017-01-11T04:56:10.467Z,43.67
2017-01-11T04:56:36.047Z,43.75
2017-01-11T04:57:39.252Z,43.77
2017-01-11T04:58:04.817Z,43.65
2017-01-11T04:58:30.471Z,43.77
2017-01-11T04:58:56.056Z,43.77
2017-01-11T04:59:21.632Z,43.87
2017-01-11T04:59:47.402Z,43.48
2017-01-11T05:00:13.127Z,43.67
2017-01-11T05:00:38.693Z,43.48
2017-01-11T05:01:04.268Z,43.67
2017-01-11T05:01:29.842Z,43.67
2017-01-11T05:01:55.466Z,43.87
2017-01-11T05:02:21.037Z,43.67
2017-01-11T05:02:46.594Z,43.58
2017-01-11T05:03:12.156Z,43.67
2017-01-11T05:03:37.721Z,43.85
2017-01-11T05:04:03.273Z,43.77
2017-01-11T05:04:28.842Z,43.48
2017-01-11T05:04:54.366Z,43.46
2017-01-11T05:05:19.969Z,43.65
2017-01-11T05:05:45.636Z,43.77
2017-01-11T05:06:11.270Z,43.77
2017-01-11T05:06:36.801Z,43.85
2017-01-11T05:07:02.395Z,43.77
2017-01-11T05:07:27.972Z,43.48
2017-01-11T05:07:53.515Z,43.67
2017-01-11T05:08:19.137Z,43.58
2017-01-11T05:08:44.673Z,43.67
2017-01-11T05:09:10.245Z,43.58
2017-01-11T05:09:35.835Z,43.58
2017-01-11T05:10:01.396Z,43.67
2017-01-11T05:10:26.973Z,43.48
2017-01-11T05:10:52.537Z,43.48
2017-01-11T05:11:18.080Z,43.58
2017-01-11T05:11:43.641Z,43.67
2017-01-11T05:12:09.224Z,43.67
2017-01-11T05:12:34.753Z,43.77
2017-01-11T05:13:00.310Z,43.65
2017-01-11T05:13:25.979Z,43.77
2017-01-11T05:13:51.537Z,43.67
2017-01-11T05:14:17.212Z,43.48
2017-01-11T05:14:42.831Z,43.67
2017-01-11T05:15:08.407Z,43.67
2017-01-11T05:15:34.061Z,43.48
2017-01-11T05:15:59.631Z,43.58
2017-01-11T05:16:25.190Z,43.67
2017-01-11T05:16:50.766Z,43.38
2017-01-11T05:17:16.488Z,43.58
2017-01-11T05:17:42.063Z,43.48
2017-01-11T05:18:07.630Z,43.67
2017-01-11T05:18:33.196Z,43.96
2017-01-11T05:18:58.790Z,43.96
2017-01-11T05:19:24.417Z,43.87
2017-01-11T05:19:49.992Z,43.87
2017-01-11T05:20:15.616Z,43.77
2017-01-11T05:20:41.198Z,43.1
2017-01-11T05:21:06.750Z,42.52
2017-01-11T05:21:32.332Z,43.29
2017-01-11T05:21:57.914Z,43.29
2017-01-11T05:22:23.496Z,43.19
2017-01-11T05:22:49.055Z,42.71
2017-01-11T05:23:14.626Z,41.55
2017-01-11T05:23:40.243Z,41.75
2017-01-11T05:24:05.820Z,42.52
2017-01-11T05:24:31.380Z,42.42
2017-01-11T05:24:57.056Z,42.42
2017-01-11T05:25:22.636Z,42.23
2017-01-11T05:25:48.218Z,42.8
2017-01-11T05:26:13.804Z,42.23
2017-01-11T05:26:39.431Z,42.42
2017-01-11T05:27:04.994Z,42.52
2017-01-11T05:27:30.561Z,42.23
2017-01-11T05:27:56.148Z,42.42
2017-01-11T05:28:21.767Z,42.13
2017-01-11T05:28:47.354Z,42.13
2017-01-11T05:29:12.932Z,42.13
2017-01-11T05:29:38.572Z,42.52
2017-01-11T05:30:04.160Z,42.23
2017-01-11T05:30:29.695Z,42.32
2017-01-11T05:30:55.268Z,42.42
2017-01-11T05:31:20.831Z,42.61
2017-01-11T05:31:46.447Z,42.61
2017-01-11T05:32:12.017Z,42.42
2017-01-11T05:32:37.591Z,42.42
2017-01-11T05:33:03.231Z,42.03
2017-01-11T05:33:28.792Z,42.42
2017-01-11T05:33:54.364Z,42.71
2017-01-11T05:34:19.924Z,42.61
2017-01-11T05:34:45.495Z,42.32
2017-01-11T05:35:11.062Z,42.71
2017-01-11T05:35:36.676Z,42.8
2017-01-11T05:36:02.287Z,42.8
2017-01-11T05:36:27.898Z,42.9
2017-01-11T05:36:53.484Z,42.71
2017-01-11T05:37:19.076Z,42.8
2017-01-11T05:37:44.689Z,42.32
2017-01-11T05:38:10.259Z,42.8
2017-01-11T05:38:35.818Z,42.9
2017-01-11T05:39:01.396Z,42.9
2017-01-11T05:39:26.996Z,42.9
2017-01-11T05:39:52.583Z,42.9
2017-01-11T05:40:18.140Z,42.9
2017-01-11T05:40:43.711Z,43.1
2017-01-11T05:41:09.398Z,43.19
2017-01-11T05:41:34.966Z,43.58
2017-01-11T05:42:00.519Z,43.38
2017-01-11T05:42:26.188Z,43.38
2017-01-11T05:42:51.827Z,43.1
2017-01-11T05:43:17.508Z,43.58
2017-01-11T05:43:43.061Z,43.58
2017-01-11T05:44:08.683Z,43.48
2017-01-11T05:44:34.252Z,43.19
2017-01-11T05:44:59.810Z,43.38
2017-01-11T05:45:25.382Z,43.48
2017-01-11T05:45:50.936Z,43.38
2017-01-11T05:46:16.505Z,43.29
2017-01-11T05:46:42.078Z,43.19
2017-01-11T05:47:07.761Z,43.38
2017-01-11T05:47:33.324Z,43.29
2017-01-11T05:47:58.943Z,43.1
2017-01-11T05:48:24.543Z,43.29
2017-01-11T05:48:50.102Z,43.29
2017-01-11T05:49:15.682Z,43.29
2017-01-11T05:49:41.306Z,43.58
2017-01-11T05:50:06.890Z,43.38
2017-01-11T05:50:32.435Z,43.58
2017-01-11T05:50:58.001Z,43.48
2017-01-11T05:51:23.574Z,43.38
2017-01-11T05:51:49.121Z,43.38
2017-01-11T05:52:14.787Z,43.48
2017-01-11T05:52:40.344Z,43.48
2017-01-11T05:53:05.911Z,43.38
2017-01-11T05:53:31.623Z,43.67
2017-01-11T05:53:57.191Z,43.77
2017-01-11T05:54:22.756Z,43.48
2017-01-11T05:54:48.448Z,43.48
2017-01-11T05:55:14.039Z,43.48
2017-01-11T05:55:39.602Z,43.58
2017-01-11T05:56:05.158Z,43.67
2017-01-11T05:56:30.765Z,43.77
2017-01-11T05:56:56.339Z,43.77
2017-01-11T05:57:21.902Z,43.77
2017-01-11T05:57:47.541Z,44.06
2017-01-11T05:58:13.117Z,44.06
2017-01-11T05:58:38.698Z,43.96
2017-01-11T05:59:04.342Z,44.64
2017-01-11T05:59:29.901Z,44.64
2017-01-11T05:59:55.461Z,44.64
2017-01-11T06:00:21.019Z,44.35
2017-01-11T06:00:46.610Z,44.25
2017-01-11T06:01:12.214Z,44.45
2017-01-11T06:01:37.887Z,44.54
2017-01-11T06:02:03.446Z,44.45
2017-01-11T06:02:29.014Z,44.83
2017-01-11T06:02:54.605Z,44.83
2017-01-11T06:03:20.173Z,44.25
2017-01-11T06:03:45.744Z,44.45
2017-01-11T06:04:11.420Z,44.54
2017-01-11T06:04:36.982Z,44.54
2017-01-11T06:05:02.562Z,44.45
2017-01-11T06:05:28.114Z,44.45
2017-01-11T06:05:53.803Z,44.93
2017-01-11T06:06:19.374Z,44.83
2017-01-11T06:06:44.936Z,44.93
2017-01-11T06:07:10.624Z,44.73
2017-01-11T06:07:36.191Z,44.73
2017-01-11T06:08:01.759Z,44.83
2017-01-11T06:08:27.393Z,44.64
2017-01-11T06:08:52.970Z,44.73
2017-01-11T06:09:18.544Z,44.83
2017-01-11T06:09:44.161Z,44.73
2017-01-11T06:10:09.798Z,44.64
2017-01-11T06:10:35.352Z,44.64
2017-01-11T06:11:01.872Z,44.93
2017-01-11T06:11:27.509Z,44.83
2017-01-11T06:11:53.097Z,44.64
2017-01-11T06:12:18.758Z,44.83
2017-01-11T06:12:44.336Z,44.93
2017-01-11T06:13:09.912Z,44.93
2017-01-11T06:13:35.600Z,44.93
2017-01-11T06:14:01.168Z,44.93
2017-01-11T06:14:26.731Z,45.21
2017-01-11T06:14:52.296Z,45.21
2017-01-11T06:15:18.022Z,45.12
2017-01-11T06:15:43.823Z,44.93
2017-01-11T06:16:09.390Z,44.93
2017-01-11T06:16:34.947Z,44.54
2017-01-11T06:17:00.524Z,44.83
2017-01-11T06:17:26.089Z,44.83
2017-01-11T06:17:51.681Z,45.12
2017-01-11T06:18:17.237Z,44.93
2017-01-11T06:18:42.799Z,45.12
2017-01-11T06:19:08.449Z,45.31
2017-01-11T06:19:34.041Z,45.21
2017-01-11T06:19:59.624Z,45.51
2017-01-11T06:20:25.167Z,45.41
2017-01-11T06:20:50.732Z,45.6
2017-01-11T06:21:16.298Z,45.41
2017-01-11T06:21:41.874Z,45.21
2017-01-11T06:22:07.585Z,42.71
2017-01-11T06:22:33.164Z,41.75
2017-01-11T06:22:58.721Z,41.36
2017-01-11T06:23:24.329Z,41.72
2017-01-11T06:23:50.110Z,41.82
2017-01-11T06:24:15.562Z,42.21
2017-01-11T06:24:41.126Z,42.97
2017-01-11T06:25:06.712Z,42.69
2017-01-11T06:25:32.284Z,42.49
2017-01-11T06:25:57.838Z,41.44
2017-01-11T06:26:23.391Z,41.05
2017-01-11T06:26:49.035Z,40.95
2017-01-11T06:27:14.634Z,41.53
2017-01-11T06:27:40.202Z,41.72
2017-01-11T06:28:05.759Z,41.92
2017-01-11T06:28:31.444Z,41.82
2017-01-11T06:28:57.003Z,41.82
2017-01-11T06:29:22.583Z,41.92
2017-01-11T06:29:48.257Z,41.92
2017-01-11T06:30:13.849Z,42.59
2017-01-11T06:30:39.419Z,42.21
2017-01-11T06:31:04.980Z,42.88
2017-01-11T06:31:30.664Z,43.27
2017-01-11T06:31:56.242Z,43.65
2017-01-11T06:32:21.803Z,43.94
2017-01-11T06:32:47.460Z,43.75
2017-01-11T06:33:13.024Z,43.46
2017-01-11T06:33:38.560Z,43.46
2017-01-11T06:34:47.641Z,43.85
2017-01-11T06:35:13.258Z,44.45
2017-01-11T06:35:38.801Z,44.32
2017-01-11T06:36:04.541Z,44.9
2017-01-11T06:36:30.092Z,44.62
2017-01-11T06:36:55.667Z,44.71
2017-01-11T06:37:21.237Z,44.71
2017-01-11T06:37:46.814Z,44.81
2017-01-11T06:38:12.433Z,44.71
2017-01-11T06:38:38.010Z,44.62
2017-01-11T06:39:03.596Z,44.9
2017-01-11T06:39:29.241Z,44.81
2017-01-11T06:39:54.788Z,44.71
2017-01-11T06:40:20.341Z,44.9
2017-01-11T06:40:45.930Z,44.71
2017-01-11T06:41:11.506Z,44.81
2017-01-11T06:41:37.067Z,44.81
2017-01-11T06:42:02.663Z,44.83
2017-01-11T06:42:28.223Z,44.93
2017-01-11T06:42:53.781Z,44.93
2017-01-11T06:43:19.353Z,44.9
2017-01-11T06:43:44.990Z,44.73
2017-01-11T06:44:10.583Z,44.83
2017-01-11T06:44:36.135Z,44.83
2017-01-11T06:45:01.720Z,44.83
2017-01-11T06:45:27.278Z,44.73
2017-01-11T06:45:52.832Z,44.71
2017-01-11T06:46:18.393Z,44.73
2017-01-11T06:46:44.016Z,44.93
2017-01-11T06:47:09.628Z,44.64
2017-01-11T06:47:35.203Z,44.81
2017-01-11T06:48:00.762Z,44.81
2017-01-11T06:48:26.332Z,44.73
2017-01-11T06:48:52.015Z,44.83
2017-01-11T06:49:17.579Z,44.81
2017-01-11T06:49:43.171Z,44.81
2017-01-11T06:50:08.753Z,44.73
2017-01-11T06:50:34.311Z,44.83
2017-01-11T06:50:59.881Z,44.73
2017-01-11T06:51:53.029Z,44.64
2017-01-11T06:52:18.675Z,44.73
2017-01-11T06:52:44.256Z,44.71
2017-01-11T06:53:09.797Z,44.73
2017-01-11T06:53:35.378Z,44.64
2017-01-11T06:54:00.940Z,44.62
2017-01-11T06:54:26.513Z,44.93
2017-01-11T06:54:52.101Z,44.83
2017-01-11T06:55:17.832Z,44.93
2017-01-11T06:55:43.412Z,44.93
2017-01-11T06:56:09.023Z,45.12
2017-01-11T06:56:34.583Z,44.83
2017-01-11T06:57:00.152Z,44.83
2017-01-11T06:57:25.698Z,45.03
2017-01-11T06:57:51.309Z,45.12
2017-01-11T06:58:16.933Z,45.03
2017-01-11T06:58:42.543Z,45.03
2017-01-11T06:59:08.114Z,44.93
2017-01-11T06:59:33.719Z,45.03
2017-01-11T06:59:59.280Z,44.93
2017-01-11T07:00:57.411Z,44.73
2017-01-11T07:01:23.015Z,44.71
2017-01-11T07:01:48.573Z,44.64
2017-01-11T07:02:14.236Z,44.64
2017-01-11T07:02:39.791Z,45.03
2017-01-11T07:03:05.373Z,45.03
2017-01-11T07:03:30.980Z,44.83
2017-01-11T07:03:56.568Z,44.73
2017-01-11T07:04:23.119Z,45.21
2017-01-11T07:04:48.682Z,44.93
2017-01-11T07:05:14.330Z,45.12
2017-01-11T07:05:39.933Z,45.12
2017-01-11T07:06:05.489Z,45.03
2017-01-11T07:06:31.065Z,44.83
2017-01-11T07:06:56.615Z,44.73
2017-01-11T07:07:22.213Z,44.83
2017-01-11T07:07:47.792Z,44.64
2017-01-11T07:08:13.370Z,44.64
2017-01-11T07:08:38.987Z,44.06
2017-01-11T07:09:04.581Z,43.67
2017-01-11T07:09:30.194Z,43.38
2017-01-11T07:09:55.757Z,43.19
2017-01-11T07:10:21.385Z,43.1
2017-01-11T07:10:46.962Z,43
2017-01-11T07:11:12.521Z,42.9
2017-01-11T07:11:38.142Z,42.42
2017-01-11T07:12:03.696Z,42.32
2017-01-11T07:12:29.255Z,42.42
2017-01-11T07:12:54.867Z,42.52
2017-01-11T07:13:20.439Z,42.52
2017-01-11T07:13:46.003Z,42.13
2017-01-11T07:14:11.572Z,42.13
2017-01-11T07:14:37.155Z,42.61
2017-01-11T07:15:02.702Z,43.19
2017-01-11T07:15:28.303Z,43.77
2017-01-11T07:15:53.909Z,43.48
2017-01-11T07:16:19.481Z,43.38
2017-01-11T07:16:45.203Z,43.58
2017-01-11T07:17:10.779Z,43.58
2017-01-11T07:17:36.393Z,43.38
2017-01-11T07:18:01.984Z,43.48
2017-01-11T07:18:27.568Z,43.48
2017-01-11T07:18:53.176Z,43.96
2017-01-11T07:19:18.722Z,43.96
2017-01-11T07:19:44.268Z,44.06
2017-01-11T07:20:09.886Z,43.77
2017-01-11T07:20:35.419Z,43.87
2017-01-11T07:21:00.979Z,43.96
2017-01-11T07:21:26.677Z,43.96
2017-01-11T07:21:52.221Z,44.73
2017-01-11T07:22:17.767Z,44.64
2017-01-11T07:22:43.314Z,44.45
2017-01-11T07:23:08.870Z,44.45
2017-01-11T07:23:34.433Z,44.54
2017-01-11T07:24:00.060Z,44.54
2017-01-11T07:24:25.598Z,44.35
2017-01-11T07:24:51.227Z,44.54
2017-01-11T07:25:16.870Z,44.54
2017-01-11T07:25:42.430Z,44.54
2017-01-11T07:26:08.002Z,44.54
2017-01-11T07:26:33.652Z,44.54
2017-01-11T07:26:59.239Z,44.54
2017-01-11T07:27:24.851Z,44.45
2017-01-11T07:27:50.385Z,44.83
2017-01-11T07:28:16.017Z,44.93
2017-01-11T07:28:41.681Z,44.83
2017-01-11T07:29:07.414Z,44.83
2017-01-11T07:29:32.969Z,44.83
2017-01-11T07:29:58.532Z,44.81
2017-01-11T07:30:24.138Z,44.93
2017-01-11T07:30:49.702Z,44.83
2017-01-11T07:31:15.251Z,44.83
2017-01-11T07:31:40.812Z,44.93
2017-01-11T07:32:06.492Z,44.73
2017-01-11T07:32:32.065Z,45.1
2017-01-11T07:32:57.614Z,45.03
2017-01-11T07:33:23.185Z,44.81
2017-01-11T07:33:48.767Z,44.81
2017-01-11T07:34:14.322Z,44.83
2017-01-11T07:34:39.940Z,44.9
2017-01-11T07:35:05.499Z,44.73
2017-01-11T07:35:31.057Z,44.81
2017-01-11T07:35:56.603Z,44.81
2017-01-11T07:36:22.164Z,44.83
2017-01-11T07:36:47.760Z,44.83
2017-01-11T07:37:13.322Z,44.81
2017-01-11T07:37:38.897Z,45.03
2017-01-11T07:38:04.521Z,44.71
2017-01-11T07:38:30.081Z,44.73
2017-01-11T07:38:55.639Z,44.71
2017-01-11T07:39:21.217Z,44.83
2017-01-11T07:39:46.805Z,44.93
2017-01-11T07:40:12.471Z,44.83
2017-01-11T07:40:38.065Z,44.73
2017-01-11T07:41:03.673Z,44.83
2017-01-11T07:41:29.231Z,44.93
2017-01-11T07:41:54.804Z,44.93
2017-01-11T07:42:20.510Z,44.71
2017-01-11T07:42:46.084Z,44.83
2017-01-11T07:43:11.691Z,45.03
2017-01-11T07:43:37.322Z,44.81
2017-01-11T07:44:02.945Z,44.83
2017-01-11T07:44:28.543Z,44.83
2017-01-11T07:44:54.115Z,44.73
2017-01-11T07:45:19.689Z,44.83
2017-01-11T07:45:45.242Z,44.93
2017-01-11T07:46:10.812Z,44.83
2017-01-11T07:46:36.372Z,44.83
2017-01-11T07:47:01.972Z,44.73
2017-01-11T07:47:27.540Z,44.73
2017-01-11T07:47:53.088Z,44.73
2017-01-11T07:48:18.660Z,44.73
2017-01-11T07:48:44.324Z,44.83
2017-01-11T07:49:09.896Z,44.73
2017-01-11T07:49:35.462Z,44.93
2017-01-11T07:50:01.030Z,44.93
2017-01-11T07:50:26.721Z,44.73
2017-01-11T07:50:52.301Z,44.93
2017-01-11T07:51:18.044Z,44.83
2017-01-11T07:51:43.639Z,44.83
2017-01-11T07:52:09.258Z,44.83
2017-01-11T07:52:34.919Z,44.83
2017-01-11T07:53:00.469Z,44.73
2017-01-11T07:53:26.168Z,44.73
2017-01-11T07:53:51.786Z,44.73
2017-01-11T07:54:17.332Z,44.93
2017-01-11T07:54:42.919Z,44.73
2017-01-11T07:55:41.082Z,44.83
2017-01-11T07:56:06.640Z,44.73
2017-01-11T07:56:32.230Z,44.83
2017-01-11T07:56:57.789Z,44.83
2017-01-11T07:57:24.164Z,44.83
2017-01-11T07:57:49.002Z,44.73
2017-01-11T07:58:14.569Z,44.93
2017-01-11T07:58:40.157Z,44.83
2017-01-11T07:59:05.738Z,44.73
2017-01-11T07:59:31.297Z,44.93
2017-01-11T07:59:56.887Z,44.73
2017-01-11T08:00:22.501Z,44.83
2017-01-11T08:00:48.056Z,44.64
2017-01-11T08:01:13.622Z,44.93
2017-01-11T08:01:39.181Z,44.64
2017-01-11T08:02:04.749Z,44.83
2017-01-11T08:02:30.353Z,44.73
2017-01-11T08:02:55.938Z,44.73
2017-01-11T08:03:21.507Z,44.64
2017-01-11T08:03:47.092Z,44.83
2017-01-11T08:04:12.634Z,44.64
2017-01-11T08:04:38.191Z,44.83
2017-01-11T08:05:03.751Z,44.73
2017-01-11T08:05:29.301Z,44.83
2017-01-11T08:05:54.852Z,44.73
2017-01-11T08:06:20.448Z,44.83
2017-01-11T08:06:46.058Z,44.93
2017-01-11T08:07:12.174Z,44.64
2017-01-11T08:07:37.769Z,44.64
2017-01-11T08:08:03.320Z,44.64
2017-01-11T08:08:28.909Z,44.64
2017-01-11T08:08:54.597Z,44.64
2017-01-11T08:09:20.173Z,44.73
2017-01-11T08:09:45.721Z,44.83
2017-01-11T08:10:11.294Z,44.64
2017-01-11T08:10:36.869Z,44.83
2017-01-11T08:11:02.429Z,44.64
2017-01-11T08:11:27.989Z,44.64
2017-01-11T08:11:53.535Z,44.64
2017-01-11T08:12:19.191Z,44.73
2017-01-11T08:12:44.749Z,44.64
2017-01-11T08:13:10.336Z,44.83
2017-01-11T08:13:35.900Z,44.73
2017-01-11T08:14:01.501Z,44.73
2017-01-11T08:14:27.101Z,44.64
2017-01-11T08:14:52.664Z,44.73
2017-01-11T08:15:18.260Z,44.64
2017-01-11T08:15:43.829Z,44.83
2017-01-11T08:16:09.383Z,44.64
2017-01-11T08:16:34.941Z,44.83
2017-01-11T08:17:00.494Z,44.64
2017-01-11T08:17:26.063Z,44.73
2017-01-11T08:17:51.759Z,44.83
2017-01-11T08:18:17.328Z,44.73
2017-01-11T08:18:42.901Z,44.83
2017-01-11T08:19:08.516Z,44.73
2017-01-11T08:19:34.115Z,44.73
2017-01-11T08:19:59.692Z,44.73
2017-01-11T08:20:25.373Z,44.73
2017-01-11T08:20:50.986Z,44.73
2017-01-11T08:21:16.560Z,44.73
2017-01-11T08:21:42.116Z,44.73
2017-01-11T08:22:07.668Z,44.64
2017-01-11T08:22:33.226Z,44.64
2017-01-11T08:22:58.783Z,44.73
2017-01-11T08:23:24.349Z,44.64
2017-01-11T08:23:49.900Z,44.73
2017-01-11T08:24:15.539Z,44.64
2017-01-11T08:24:41.077Z,44.73
2017-01-11T08:25:06.655Z,44.73
2017-01-11T08:25:32.336Z,44.83
2017-01-11T08:25:58.450Z,44.73
2017-01-11T08:26:24.037Z,44.73
2017-01-11T08:26:49.680Z,44.83
2017-01-11T08:27:15.239Z,44.73
2017-01-11T08:27:40.801Z,44.73
2017-01-11T08:28:06.410Z,44.73
2017-01-11T08:28:31.983Z,44.73
2017-01-11T08:28:57.541Z,44.83
2017-01-11T08:29:23.096Z,44.73
2017-01-11T08:29:48.668Z,44.83
2017-01-11T08:30:14.234Z,44.73
2017-01-11T08:31:07.266Z,44.73
2017-01-11T08:33:14.445Z,44.73
2017-01-11T08:33:48.330Z,44.93
2017-01-11T08:34:13.876Z,44.83
2017-01-11T08:34:39.419Z,44.73
2017-01-11T08:35:04.950Z,44.93
2017-01-11T08:35:30.486Z,44.83
2017-01-11T08:35:56.834Z,44.83
2017-01-11T08:36:21.628Z,44.83
2017-01-11T08:36:47.177Z,44.83
2017-01-11T08:37:12.718Z,44.73
2017-01-11T08:37:38.278Z,44.83
2017-01-11T08:38:03.823Z,44.83
2017-01-11T08:38:29.378Z,44.93
2017-01-11T08:38:54.997Z,44.93
2017-01-11T08:39:20.598Z,44.93
2017-01-11T08:39:46.162Z,44.83
2017-01-11T08:40:11.743Z,44.73
2017-01-11T08:40:37.315Z,44.73
2017-01-11T08:41:02.881Z,44.93
2017-01-11T08:41:29.337Z,45.03
2017-01-11T08:41:54.128Z,44.83
2017-01-11T08:42:19.683Z,44.73
2017-01-11T08:42:45.245Z,44.93
2017-01-11T08:43:10.820Z,44.93
2017-01-11T08:43:36.404Z,44.83
2017-01-11T08:44:01.987Z,44.93
2017-01-11T08:44:27.537Z,45.03
2017-01-11T08:44:53.119Z,44.93
2017-01-11T08:45:18.704Z,44.9
2017-01-11T08:45:44.266Z,44.83
2017-01-11T08:46:09.831Z,44.93
2017-01-11T08:46:35.407Z,44.93
2017-01-11T08:47:33.489Z,44.83
2017-01-11T08:47:59.063Z,44.73
2017-01-11T08:48:24.617Z,44.93
2017-01-11T08:48:50.169Z,44.83
2017-01-11T08:49:15.729Z,44.73
2017-01-11T08:49:42.292Z,44.35
2017-01-11T08:50:08.008Z,44.93
2017-01-11T08:50:33.585Z,44.25
2017-01-11T08:50:59.161Z,44.93
2017-01-11T08:51:24.724Z,44.35
2017-01-11T08:51:50.298Z,44.83
2017-01-11T08:52:15.909Z,44.93
2017-01-11T08:52:41.477Z,44.93
2017-01-11T08:53:07.035Z,44.93
2017-01-11T08:53:32.716Z,44.93
2017-01-11T08:53:58.280Z,44.93
2017-01-11T08:54:23.852Z,44.83
2017-01-11T08:54:49.408Z,44.73
2017-01-11T08:55:14.963Z,44.83
2017-01-11T08:55:40.564Z,44.83
2017-01-11T08:56:06.120Z,44.83
2017-01-11T08:56:31.796Z,44.83
2017-01-11T08:56:57.348Z,44.93
2017-01-11T08:57:22.979Z,44.83
2017-01-11T08:57:48.563Z,44.93
2017-01-11T08:58:14.099Z,44.93
2017-01-11T08:58:39.748Z,44.73
2017-01-11T08:59:05.324Z,44.83
2017-01-11T08:59:30.899Z,44.73
2017-01-11T08:59:56.448Z,44.73
2017-01-11T09:00:22.017Z,44.73
2017-01-11T09:00:47.563Z,44.83
2017-01-11T09:01:13.115Z,44.83
2017-01-11T09:01:38.692Z,44.83
2017-01-11T09:02:04.342Z,44.81
2017-01-11T09:02:30.073Z,44.73
2017-01-11T09:02:55.729Z,44.93
2017-01-11T09:03:21.311Z,44.93
2017-01-11T09:03:46.887Z,44.73
2017-01-11T09:04:12.464Z,44.93
2017-01-11T09:04:38.028Z,44.93
2017-01-11T09:05:03.596Z,45.03
2017-01-11T09:05:29.169Z,44.83
2017-01-11T09:05:54.734Z,44.83
2017-01-11T09:06:20.356Z,44.83
2017-01-11T09:06:45.947Z,44.73
2017-01-11T09:07:11.514Z,44.83
2017-01-11T09:07:37.094Z,44.93
2017-01-11T09:08:02.686Z,44.93
2017-01-11T09:08:28.251Z,44.83
2017-01-11T09:08:53.817Z,44.93
2017-01-11T09:09:19.552Z,44.93
2017-01-11T09:09:45.095Z,44.71
2017-01-11T09:10:10.673Z,44.83
2017-01-11T09:10:36.395Z,44.83
2017-01-11T09:11:01.994Z,44.93
2017-01-11T09:11:27.582Z,44.83
2017-01-11T09:11:53.156Z,44.93
2017-01-11T09:12:18.724Z,44.83
2017-01-11T09:12:44.276Z,44.83
2017-01-11T09:13:09.826Z,44.83
2017-01-11T09:13:35.392Z,44.83
2017-01-11T09:14:00.944Z,44.93
2017-01-11T09:14:26.564Z,44.83
2017-01-11T09:14:52.115Z,44.35
2017-01-11T09:15:17.683Z,44.73
2017-01-11T09:15:43.278Z,44.83
2017-01-11T09:16:08.979Z,44.83
2017-01-11T09:16:34.529Z,44.73
2017-01-11T09:17:00.176Z,44.93
2017-01-11T09:17:25.728Z,44.83
2017-01-11T09:17:51.278Z,44.83
2017-01-11T09:18:16.837Z,44.83
2017-01-11T09:18:42.510Z,44.83
2017-01-11T09:19:08.110Z,44.93
2017-01-11T09:19:33.665Z,44.93
2017-01-11T09:19:59.289Z,44.83
2017-01-11T09:20:24.827Z,44.93
2017-01-11T09:20:50.373Z,44.73
2017-01-11T09:21:53.577Z,44.35
2017-01-11T09:22:19.129Z,44.93
2017-01-11T09:22:44.718Z,44.35
2017-01-11T09:23:10.319Z,44.45
2017-01-11T09:23:35.894Z,44.54
2017-01-11T09:24:01.446Z,44.35
2017-01-11T09:24:27.022Z,44.45
2017-01-11T09:24:52.691Z,44.54
2017-01-11T09:25:18.276Z,44.54
2017-01-11T09:25:43.839Z,44.35
2017-01-11T09:26:09.506Z,44.45
2017-01-11T09:26:35.067Z,44.45
2017-01-11T09:27:00.629Z,44.45
2017-01-11T09:27:26.284Z,44.35
2017-01-11T09:27:51.867Z,44.54
2017-01-11T09:28:17.427Z,44.45
2017-01-11T09:28:42.984Z,44.45
2017-01-11T09:29:08.707Z,44.45
2017-01-11T09:29:34.293Z,44.54
2017-01-11T09:29:59.841Z,44.45
2017-01-11T09:30:25.392Z,44.54
2017-01-11T09:30:50.963Z,44.45
2017-01-11T09:31:16.521Z,44.45
2017-01-11T09:31:42.082Z,44.45
2017-01-11T09:32:07.654Z,44.45
2017-01-11T09:32:33.203Z,44.54
2017-01-11T09:32:58.851Z,44.54
2017-01-11T09:33:24.405Z,44.54
2017-01-11T09:33:49.955Z,44.45
2017-01-11T09:34:15.512Z,44.45
2017-01-11T09:34:41.121Z,44.45
2017-01-11T09:35:06.687Z,44.35
2017-01-11T09:35:32.261Z,44.54
2017-01-11T09:35:57.820Z,44.45
2017-01-11T09:36:23.474Z,44.54
2017-01-11T09:36:49.054Z,44.54
2017-01-11T09:37:14.627Z,44.45